Travetal — 5BCT2 — position and weather

sailwx.info

Track history (hours):
 
Tides and Currents Weather Stations Pressure Air Temp Water Temp Dewpoint Dewpoint Depression Visibility Wind Speed Wind Dir Waves Ship Positions

Travetal

Last reported at 2018-May-25 05:36 UTC. Time now 2018-May-26 02:29 UTC.
Position N 54°58' E 020°20'.

Length 89 m; draft 5.3 m.

Type: Ship. MMSI: 210974000.

Date/timePositionNaut miles runAvg speedWind from/ knotsBaromVisibWave heightAir tempDewpointWater temp
2018-May-25 05:36N 54°58' E 020°20'0 0.0
2018-May-25 05:23N 54°58' E 020°20'0 0.0
2018-May-25 04:04N 54°58' E 020°20'0 0.0
2018-May-25 02:14N 54°58' E 020°20'0 0.0
2018-May-25 01:58N 54°58' E 020°20'0 0.0
2018-May-25 01:29N 54°58' E 020°20'0 0.0
2018-May-25 00:01N 54°58' E 020°20'0 0.0
2018-May-24 23:59N 54°58' E 020°20'0 0.0
2018-May-24 23:30N 54°58' E 020°20'0 0.0
2018-May-24 23:00N 54°58' E 020°20'0 0.1
2018-May-24 22:30N 54°58' E 020°20'0 0.0
2018-May-24 16:23N 54°57' E 020°20'1 0.1
2018-May-24 04:27N 54°58' E 020°18'3 7.5
2018-May-24 04:00N 55°00' E 020°13'4 7.8
2018-May-24 03:31N 55°00' E 020°06'4 7.8
2018-May-24 03:00N 55°01' E 019°59'4 7.7
2018-May-24 02:30N 55°00' E 019°53'4 8.1
2018-May-24 01:59N 55°00' E 019°46'4 8.4
2018-May-24 01:30N 54°59' E 019°39'4 8.2
2018-May-24 01:00N 54°55' E 019°37'10 8.9
2018-May-23 23:54N 54°45' E 019°38'3 8.2
2018-May-23 23:30N 54°43' E 019°42'5 9.0
2018-May-23 23:00N 54°40' E 019°48'4 8.4
2018-May-23 22:30N 54°38' E 019°54'4 8.2
2018-May-23 22:00N 54°38' E 020°01'6 8.2
2018-May-23 21:15N 54°41' E 020°11'2 8.5
2018-May-23 20:58N 54°41' E 020°15'10 1.3
2018-May-23 13:28N 54°38' E 019°59'4 8.0
2018-May-23 13:00N 54°38' E 019°53'2 4.3
2018-May-23 12:30N 54°40' E 019°50'3 4.9
2018-May-23 11:57N 54°41' E 019°46'3 7.6
2018-May-23 11:30N 54°43' E 019°41'4 8.6
2018-May-23 11:00N 54°45' E 019°34'5 9.2
2018-May-23 10:30N 54°47' E 019°27'5 9.3
2018-May-23 10:00N 54°49' E 019°20'4 7.5
2018-May-23 09:30N 54°53' E 019°17'4 8.0
2018-May-23 09:00N 54°56' E 019°15'5 9.6
2018-May-23 08:30N 55°01' E 019°12'5 9.5
2018-May-23 08:00N 55°05' E 019°08'5 9.1
2018-May-23 07:30N 55°09' E 019°05'4 8.7
2018-May-23 06:59N 55°14' E 019°02'4 8.7
2018-May-23 06:30N 55°17' E 018°59'4 8.5
2018-May-23 06:00N 55°21' E 018°56'  
Track history (hours):
 
Tides and Currents Weather Stations Pressure Air Temp Water Temp Dewpoint Dewpoint Depression Visibility Wind Speed Wind Dir Waves Ship Positions

Travetal

Last reported at 2018-May-25 05:36 UTC. Time now 2018-May-26 02:29 UTC.
Position N 54°58' E 020°20'.

Length 89 m; draft 5.3 m.

Type: Ship. MMSI: 210974000.

Date/timePositionNaut miles runAvg speedWind from/ knotsBaromVisibWave heightAir tempDewpointWater temp
2018-May-25 05:36N 54°58' E 020°20'0 0.0
2018-May-25 05:23N 54°58' E 020°20'0 0.0
2018-May-25 04:04N 54°58' E 020°20'0 0.0
2018-May-25 02:14N 54°58' E 020°20'0 0.0
2018-May-25 01:58N 54°58' E 020°20'0 0.0
2018-May-25 01:29N 54°58' E 020°20'0 0.0
2018-May-25 00:01N 54°58' E 020°20'0 0.0
2018-May-24 23:59N 54°58' E 020°20'0 0.0
2018-May-24 23:30N 54°58' E 020°20'0 0.0
2018-May-24 23:00N 54°58' E 020°20'0 0.1
2018-May-24 22:30N 54°58' E 020°20'0 0.0
2018-May-24 16:23N 54°57' E 020°20'1 0.1
2018-May-24 04:27N 54°58' E 020°18'3 7.5
2018-May-24 04:00N 55°00' E 020°13'4 7.8
2018-May-24 03:31N 55°00' E 020°06'4 7.8
2018-May-24 03:00N 55°01' E 019°59'4 7.7
2018-May-24 02:30N 55°00' E 019°53'4 8.1
2018-May-24 01:59N 55°00' E 019°46'4 8.4
2018-May-24 01:30N 54°59' E 019°39'4 8.2
2018-May-24 01:00N 54°55' E 019°37'10 8.9
2018-May-23 23:54N 54°45' E 019°38'3 8.2
2018-May-23 23:30N 54°43' E 019°42'5 9.0
2018-May-23 23:00N 54°40' E 019°48'4 8.4
2018-May-23 22:30N 54°38' E 019°54'4 8.2
2018-May-23 22:00N 54°38' E 020°01'6 8.2
2018-May-23 21:15N 54°41' E 020°11'2 8.5
2018-May-23 20:58N 54°41' E 020°15'10 1.3
2018-May-23 13:28N 54°38' E 019°59'4 8.0
2018-May-23 13:00N 54°38' E 019°53'2 4.3
2018-May-23 12:30N 54°40' E 019°50'3 4.9
2018-May-23 11:57N 54°41' E 019°46'3 7.6
2018-May-23 11:30N 54°43' E 019°41'4 8.6
2018-May-23 11:00N 54°45' E 019°34'5 9.2
2018-May-23 10:30N 54°47' E 019°27'5 9.3
2018-May-23 10:00N 54°49' E 019°20'4 7.5
2018-May-23 09:30N 54°53' E 019°17'4 8.0
2018-May-23 09:00N 54°56' E 019°15'5 9.6
2018-May-23 08:30N 55°01' E 019°12'5 9.5
2018-May-23 08:00N 55°05' E 019°08'5 9.1
2018-May-23 07:30N 55°09' E 019°05'4 8.7
2018-May-23 06:59N 55°14' E 019°02'4 8.7
2018-May-23 06:30N 55°17' E 018°59'4 8.5
2018-May-23 06:00N 55°21' E 018°56'  

Dump ship's entire track history